createdAt,value
2019-01-06T00:01:53.813Z,1.40
2019-01-06T00:04:47.318Z,1.30
2019-01-06T00:07:36.258Z,1.30
2019-01-06T00:10:26.637Z,1.30
2019-01-06T00:13:15.440Z,1.30
2019-01-06T00:16:00.332Z,1.30
2019-01-06T00:19:02.737Z,1.30
2019-01-06T00:21:55.546Z,1.20
2019-01-06T00:25:03.896Z,1.20
2019-01-06T00:27:53.035Z,1.30
2019-01-06T00:30:41.392Z,1.40
2019-01-06T00:33:43.629Z,1.30
2019-01-06T00:36:45.795Z,1.30
2019-01-06T00:39:42.049Z,1.40
2019-01-06T00:42:31.062Z,1.30
2019-01-06T00:45:19.995Z,1.30
2019-01-06T00:48:20.217Z,1.40
2019-01-06T00:51:10.219Z,1.30
2019-01-06T00:53:59.034Z,1.30
2019-01-06T00:56:49.097Z,1.30
2019-01-06T00:59:37.930Z,1.30
2019-01-06T01:02:46.185Z,1.40
2019-01-06T01:05:51.556Z,1.30
2019-01-06T01:08:44.157Z,1.40
2019-01-06T01:11:32.972Z,1.30
2019-01-06T01:14:21.551Z,1.40
2019-01-06T01:17:29.814Z,1.30
2019-01-06T01:20:14.938Z,1.30
2019-01-06T01:23:00.342Z,1.30
2019-01-06T01:26:08.898Z,1.30
2019-01-06T01:29:04.834Z,1.30
2019-01-06T01:32:04.010Z,1.30
2019-01-06T01:34:54.301Z,1.40
2019-01-06T01:37:40.833Z,1.40
2019-01-06T01:40:36.989Z,1.40
2019-01-06T01:43:39.189Z,1.50
2019-01-06T01:46:38.581Z,1.50
2019-01-06T01:49:47.260Z,1.40
2019-01-06T01:52:36.041Z,1.50
2019-01-06T01:55:24.930Z,1.50
2019-01-06T01:58:23.971Z,1.40
2019-01-06T02:01:14.684Z,1.50
2019-01-06T02:04:16.832Z,1.50
2019-01-06T02:07:04.067Z,1.40
2019-01-06T02:10:06.139Z,1.40
2019-01-06T02:12:56.732Z,1.40
2019-01-06T02:15:52.846Z,1.40
2019-01-06T02:18:41.976Z,1.40
2019-01-06T02:21:35.180Z,1.50
2019-01-06T02:24:34.180Z,1.40
2019-01-06T02:27:22.762Z,1.40
2019-01-06T02:30:11.664Z,1.40
2019-01-06T02:33:10.519Z,1.40
2019-01-06T02:36:09.276Z,1.40
2019-01-06T02:39:02.088Z,1.50
2019-01-06T02:42:09.259Z,1.50
2019-01-06T02:45:07.667Z,1.50
2019-01-06T02:48:04.033Z,1.50
2019-01-06T02:50:56.522Z,1.40
2019-01-06T02:53:45.612Z,1.50
2019-01-06T02:56:35.645Z,1.60
2019-01-06T02:59:28.890Z,1.50
2019-01-06T03:02:17.836Z,1.50
2019-01-06T03:05:08.096Z,1.50
2019-01-06T03:08:07.842Z,1.50
2019-01-06T03:11:02.459Z,1.50
2019-01-06T03:14:04.630Z,1.50
2019-01-06T03:16:53.372Z,1.60
2019-01-06T03:19:52.566Z,1.50
2019-01-06T03:22:41.951Z,1.50
2019-01-06T03:25:47.218Z,1.50
2019-01-06T03:28:42.808Z,1.50
2019-01-06T03:31:39.027Z,1.50
2019-01-06T03:34:24.660Z,1.50
2019-01-06T03:37:30.057Z,1.60
2019-01-06T03:40:26.299Z,1.50
2019-01-06T03:43:14.912Z,1.50
2019-01-06T03:45:58.323Z,1.50
2019-01-06T03:49:04.800Z,1.50
2019-01-06T03:52:04.219Z,1.50
2019-01-06T03:55:09.405Z,1.50
2019-01-06T03:57:59.639Z,1.50
2019-01-06T04:00:51.493Z,1.50
2019-01-06T04:03:45.815Z,1.50
2019-01-06T04:06:44.867Z,1.50
2019-01-06T04:09:38.996Z,1.50
2019-01-06T04:12:27.466Z,1.50
2019-01-06T04:15:30.218Z,1.50
2019-01-06T04:18:29.452Z,1.50
2019-01-06T04:21:35.438Z,1.60
2019-01-06T04:24:20.392Z,1.60
2019-01-06T04:27:11.859Z,1.60
2019-01-06T04:30:20.073Z,1.60
2019-01-06T04:33:08.592Z,1.60
2019-01-06T04:35:57.280Z,1.70
2019-01-06T04:39:05.430Z,1.70
2019-01-06T04:41:59.607Z,1.60
2019-01-06T04:44:49.624Z,1.60
2019-01-06T04:47:34.352Z,1.50
2019-01-06T04:50:24.536Z,1.50
2019-01-06T04:53:09.542Z,1.50
2019-01-06T04:55:58.216Z,1.50
2019-01-06T04:58:48.529Z,1.60
2019-01-06T05:01:49.798Z,1.60
2019-01-06T05:04:38.488Z,1.60
2019-01-06T05:07:34.325Z,1.60
2019-01-06T05:10:36.896Z,1.60
2019-01-06T05:13:33.429Z,1.70
2019-01-06T05:16:29.416Z,1.60
2019-01-06T05:19:18.452Z,1.70
2019-01-06T05:22:26.885Z,1.70
2019-01-06T05:25:20.030Z,1.70
2019-01-06T05:28:08.861Z,1.60
2019-01-06T05:30:59.061Z,1.70
2019-01-06T05:33:47.420Z,1.60
2019-01-06T05:36:46.479Z,1.60
2019-01-06T05:39:35.621Z,1.60
2019-01-06T05:42:24.445Z,1.70
2019-01-06T05:45:14.541Z,1.60
2019-01-06T05:48:07.338Z,1.70
2019-01-06T05:51:00.653Z,1.60
2019-01-06T05:53:49.287Z,1.60
2019-01-06T05:56:28.234Z,1.60
2019-01-06T05:59:14.886Z,1.70
2019-01-06T06:02:08.098Z,1.70
2019-01-06T06:04:58.140Z,1.70
2019-01-06T06:07:46.958Z,1.70
2019-01-06T06:10:35.785Z,1.70
2019-01-06T06:13:24.724Z,1.70
2019-01-06T06:16:13.594Z,1.70
2019-01-06T06:19:03.700Z,1.70
2019-01-06T06:21:51.787Z,1.70
2019-01-06T06:24:40.945Z,1.70
2019-01-06T06:27:30.980Z,1.70
2019-01-06T06:30:20.051Z,1.70
2019-01-06T06:33:04.746Z,1.60
2019-01-06T06:35:56.553Z,1.60
2019-01-06T06:38:50.021Z,1.70
2019-01-06T06:41:51.931Z,1.70
2019-01-06T06:44:41.255Z,1.70
2019-01-06T06:47:42.091Z,1.60
2019-01-06T06:50:31.592Z,1.80
2019-01-06T06:53:20.606Z,1.80
2019-01-06T06:56:23.217Z,1.70
2019-01-06T06:59:11.358Z,1.70
2019-01-06T07:02:50.453Z,1.70
2019-01-06T07:05:42.690Z,1.70
2019-01-06T07:08:32.875Z,1.70
2019-01-06T07:11:28.280Z,1.70
2019-01-06T07:14:25.616Z,1.70
2019-01-06T07:17:57.707Z,1.70
2019-01-06T07:21:03.032Z,1.80
2019-01-06T07:23:50.278Z,1.80
2019-01-06T07:26:49.556Z,1.80
2019-01-06T07:29:39.554Z,1.80
2019-01-06T07:32:32.473Z,1.70
2019-01-06T07:35:20.972Z,1.80
2019-01-06T07:38:09.815Z,1.90
2019-01-06T07:40:58.613Z,1.90
2019-01-06T07:43:43.542Z,1.90
2019-01-06T07:46:33.492Z,2.00
2019-01-06T07:49:34.903Z,2.00
2019-01-06T07:52:18.890Z,2.10
2019-01-06T07:55:07.930Z,2.10
2019-01-06T07:58:05.010Z,2.10
2019-01-06T08:00:53.853Z,2.10
2019-01-06T08:03:58.867Z,2.10
2019-01-06T08:06:49.257Z,2.20
2019-01-06T08:09:31.305Z,2.10
2019-01-06T08:12:34.051Z,2.10
2019-01-06T08:15:23.289Z,2.20
2019-01-06T08:18:12.704Z,2.20
2019-01-06T08:21:09.135Z,2.20
2019-01-06T08:24:02.362Z,2.30
2019-01-06T08:26:52.351Z,2.20
2019-01-06T08:29:42.488Z,2.30
2019-01-06T08:32:44.888Z,2.20
2019-01-06T08:35:35.376Z,2.10
2019-01-06T08:38:28.419Z,2.20
2019-01-06T08:41:32.970Z,2.20
2019-01-06T08:44:18.074Z,2.10
2019-01-06T08:47:07.369Z,2.10
2019-01-06T08:50:01.822Z,2.20
2019-01-06T08:52:52.244Z,2.30
2019-01-06T08:55:40.952Z,2.40
2019-01-06T08:58:29.688Z,2.40
2019-01-06T09:01:18.558Z,2.40
2019-01-06T09:04:07.377Z,2.60
2019-01-06T09:06:46.470Z,2.50
2019-01-06T09:09:45.682Z,2.60
2019-01-06T09:12:32.870Z,2.60
2019-01-06T09:15:32.339Z,2.60
2019-01-06T09:18:13.170Z,2.70
2019-01-06T09:21:02.268Z,2.80
2019-01-06T09:23:49.664Z,2.90
2019-01-06T09:26:54.853Z,2.80
2019-01-06T09:29:54.028Z,2.90
2019-01-06T09:32:54.568Z,2.80
2019-01-06T09:35:56.906Z,3.00
2019-01-06T09:38:52.964Z,3.00
2019-01-06T09:41:43.540Z,3.00
2019-01-06T09:44:33.577Z,3.00
2019-01-06T09:47:35.854Z,3.00
2019-01-06T09:50:24.580Z,3.00
2019-01-06T09:53:13.520Z,3.00
2019-01-06T09:56:21.451Z,2.90
2019-01-06T09:59:10.374Z,2.90
2019-01-06T10:02:06.663Z,2.90
2019-01-06T10:05:06.050Z,2.90
2019-01-06T10:08:14.682Z,2.80
2019-01-06T10:11:16.529Z,2.80
2019-01-06T10:14:12.039Z,2.80
2019-01-06T10:17:11.212Z,2.80
2019-01-06T10:20:13.967Z,2.70
2019-01-06T10:23:02.695Z,2.60
2019-01-06T10:25:53.093Z,2.70
2019-01-06T10:28:49.225Z,2.70
2019-01-06T10:31:39.482Z,2.80
2019-01-06T10:34:28.090Z,2.80
2019-01-06T10:37:31.392Z,2.90
2019-01-06T10:40:27.425Z,2.80
2019-01-06T10:43:17.650Z,2.80
2019-01-06T10:46:07.781Z,2.90
2019-01-06T10:49:03.418Z,2.80
2019-01-06T10:51:51.998Z,2.90
2019-01-06T10:54:57.614Z,3.00
2019-01-06T10:57:47.002Z,3.00
2019-01-06T11:00:43.288Z,3.00
2019-01-06T11:03:33.369Z,3.00
2019-01-06T11:06:23.646Z,3.00
2019-01-06T11:09:19.835Z,3.00
2019-01-06T11:12:16.444Z,3.10
2019-01-06T11:15:18.764Z,3.10
2019-01-06T11:18:08.232Z,3.20
2019-01-06T11:24:59.458Z,3.10
2019-01-06T11:46:38.998Z,3.20
2019-01-06T11:49:47.807Z,3.20
2019-01-06T11:52:43.934Z,3.30
2019-01-06T11:55:32.472Z,3.20
2019-01-06T11:58:21.459Z,3.20
2019-01-06T12:01:17.579Z,3.30
2019-01-06T12:04:07.760Z,3.40
2019-01-06T12:07:08.780Z,3.40
2019-01-06T12:09:57.961Z,3.40
2019-01-06T12:12:51.048Z,3.40
2019-01-06T12:15:42.201Z,3.40
2019-01-06T12:18:47.550Z,3.40
2019-01-06T12:21:52.770Z,3.40
2019-01-06T12:24:43.871Z,3.40
2019-01-06T12:27:32.500Z,3.50
2019-01-06T12:30:33.896Z,3.40
2019-01-06T12:33:21.952Z,3.50
2019-01-06T12:36:10.564Z,3.40
2019-01-06T12:39:13.213Z,3.40
2019-01-06T12:42:09.125Z,3.50
2019-01-06T12:45:11.648Z,3.50
2019-01-06T12:48:00.539Z,3.50
2019-01-06T12:51:05.704Z,3.50
2019-01-06T12:54:01.152Z,3.50
2019-01-06T12:56:51.566Z,3.50
2019-01-06T12:59:40.261Z,3.50
2019-01-06T13:02:25.912Z,3.50
2019-01-06T13:05:18.990Z,3.50
2019-01-06T13:08:24.208Z,3.50
2019-01-06T13:11:12.918Z,3.50
2019-01-06T13:14:03.148Z,3.50
2019-01-06T13:17:06.957Z,3.60
2019-01-06T13:19:55.748Z,3.60
2019-01-06T13:22:47.528Z,3.70
2019-01-06T13:25:36.158Z,3.70
2019-01-06T13:28:25.457Z,3.70
2019-01-06T13:31:18.509Z,3.60
2019-01-06T13:34:17.627Z,3.50
2019-01-06T13:37:11.766Z,3.60
2019-01-06T13:40:04.644Z,3.50
2019-01-06T13:42:54.452Z,3.60
2019-01-06T13:45:53.910Z,3.50
2019-01-06T13:48:42.820Z,3.50
2019-01-06T13:51:31.868Z,3.50
2019-01-06T13:54:34.526Z,3.40
2019-01-06T13:57:24.686Z,3.40
2019-01-06T14:00:13.356Z,3.40
2019-01-06T14:03:03.674Z,3.40
2019-01-06T14:05:59.778Z,3.40
2019-01-06T14:08:46.989Z,3.30
2019-01-06T14:11:40.352Z,3.40
2019-01-06T14:14:29.362Z,3.40
2019-01-06T14:17:18.456Z,3.50
2019-01-06T14:20:07.500Z,3.40
2019-01-06T14:22:58.233Z,3.40
2019-01-06T14:26:06.911Z,3.50
2019-01-06T14:28:58.058Z,3.30
2019-01-06T14:31:49.794Z,3.30
2019-01-06T14:34:34.052Z,3.40
2019-01-06T14:37:23.163Z,3.30
2019-01-06T14:40:13.990Z,3.30
2019-01-06T14:43:14.104Z,3.30
2019-01-06T14:46:02.532Z,3.30
2019-01-06T15:08:18.570Z,3.40
2019-01-06T15:11:07.362Z,3.40
2019-01-06T15:13:56.193Z,3.40
2019-01-06T15:16:45.109Z,3.40
2019-01-06T15:19:36.514Z,3.40
2019-01-06T15:22:25.474Z,3.50
2019-01-06T15:25:15.813Z,3.40
2019-01-06T15:28:07.549Z,3.40
2019-01-06T15:31:06.418Z,3.40
2019-01-06T15:33:53.143Z,3.30
2019-01-06T15:36:42.306Z,3.30
2019-01-06T15:39:32.319Z,3.30
2019-01-06T15:42:28.531Z,3.30
2019-01-06T15:45:27.904Z,3.30
2019-01-06T15:48:33.272Z,3.30
2019-01-06T15:51:24.044Z,3.20
2019-01-06T15:54:32.479Z,3.20
2019-01-06T15:57:34.312Z,3.20
2019-01-06T16:00:44.136Z,3.20
2019-01-06T16:03:43.142Z,3.20
2019-01-06T16:06:42.096Z,3.20
2019-01-06T16:09:32.084Z,3.20
2019-01-06T16:12:21.164Z,3.20
2019-01-06T16:15:13.838Z,3.10
2019-01-06T16:18:16.389Z,3.20
2019-01-06T16:21:12.524Z,3.20
2019-01-06T16:24:12.105Z,3.20
2019-01-06T16:27:00.644Z,3.20
2019-01-06T16:29:48.138Z,3.20
2019-01-06T16:32:50.421Z,3.20
2019-01-06T16:35:40.650Z,3.20
2019-01-06T16:38:36.492Z,3.20
2019-01-06T16:41:45.130Z,3.20
2019-01-06T16:44:35.173Z,3.20
2019-01-06T16:47:23.932Z,3.10
2019-01-06T16:50:13.936Z,3.10
2019-01-06T16:53:10.248Z,3.00
2019-01-06T16:55:58.989Z,3.00
2019-01-06T16:58:49.333Z,2.90
2019-01-06T17:01:42.444Z,2.90
2019-01-06T17:04:35.715Z,2.80
2019-01-06T17:07:28.810Z,2.70
2019-01-06T17:10:22.037Z,2.70
2019-01-06T17:13:18.096Z,2.80
2019-01-06T17:16:04.255Z,2.70
2019-01-06T17:18:46.388Z,2.70
2019-01-06T17:21:35.212Z,2.70
2019-01-06T17:24:34.633Z,2.70
2019-01-06T17:27:33.935Z,2.70
2019-01-06T17:30:30.295Z,2.70
2019-01-06T17:33:21.812Z,2.70
2019-01-06T17:36:10.329Z,2.70
2019-01-06T17:38:54.605Z,2.70
2019-01-06T17:41:47.778Z,2.70
2019-01-06T17:44:47.080Z,2.60
2019-01-06T17:47:37.094Z,2.70
2019-01-06T17:50:27.336Z,2.70
2019-01-06T17:53:29.621Z,2.70
2019-01-06T17:56:22.971Z,2.70
2019-01-06T17:59:19.066Z,2.70
2019-01-06T18:02:24.591Z,2.70
2019-01-06T18:05:32.941Z,2.70
2019-01-06T18:08:21.900Z,2.70
2019-01-06T18:11:24.032Z,2.70
2019-01-06T18:14:12.944Z,2.70
2019-01-06T18:17:01.776Z,2.70
2019-01-06T18:19:54.755Z,2.70
2019-01-06T18:22:38.625Z,2.70
2019-01-06T18:25:28.836Z,2.70
2019-01-06T18:28:17.802Z,2.70
2019-01-06T18:31:17.186Z,2.70
2019-01-06T18:34:06.108Z,2.70
2019-01-06T18:36:55.488Z,2.60
2019-01-06T18:39:44.358Z,2.60
2019-01-06T18:42:43.130Z,2.70
2019-01-06T18:45:40.828Z,2.60
2019-01-06T18:48:30.060Z,2.70
2019-01-06T18:51:31.906Z,2.70
2019-01-06T18:54:31.538Z,2.70
2019-01-06T18:57:20.457Z,2.70
2019-01-06T19:00:16.502Z,2.70
2019-01-06T19:03:01.333Z,2.70
2019-01-06T19:05:51.980Z,2.60
2019-01-06T19:09:02.402Z,2.70
2019-01-06T19:12:06.065Z,2.70
2019-01-06T19:15:02.368Z,2.60
2019-01-06T19:18:02.031Z,2.70
2019-01-06T19:20:50.866Z,2.60
2019-01-06T19:23:50.021Z,2.60
2019-01-06T19:26:41.737Z,2.60
2019-01-06T19:29:31.959Z,2.60
2019-01-06T19:32:27.947Z,2.60
2019-01-06T19:35:27.270Z,2.60
2019-01-06T19:38:16.020Z,2.50
2019-01-06T19:41:09.220Z,2.60
2019-01-06T19:43:57.801Z,2.50
2019-01-06T19:46:46.534Z,2.50
2019-01-06T19:49:36.347Z,2.50
2019-01-06T19:52:34.872Z,2.50
2019-01-06T19:55:40.424Z,2.50
2019-01-06T19:58:40.329Z,2.50
2019-01-06T20:01:39.408Z,2.60
2019-01-06T20:07:25.681Z,2.60
2019-01-06T20:10:18.504Z,2.60
2019-01-06T20:13:23.986Z,2.60
2019-01-06T20:16:09.364Z,2.60
2019-01-06T20:18:58.114Z,2.60
2019-01-06T20:21:57.548Z,2.60
2019-01-06T20:24:59.521Z,2.60
2019-01-06T20:27:59.851Z,2.60
2019-01-06T20:31:02.005Z,2.60
2019-01-06T20:33:51.104Z,2.70
2019-01-06T20:36:40.152Z,2.60
2019-01-06T20:39:41.614Z,2.70
2019-01-06T20:42:24.067Z,2.60
2019-01-06T20:45:14.221Z,2.60
2019-01-06T20:48:15.957Z,2.50
2019-01-06T20:51:06.150Z,2.50
2019-01-06T20:54:11.551Z,2.50
2019-01-06T20:57:11.522Z,2.60
2019-01-06T21:00:00.259Z,2.60
2019-01-06T21:02:59.177Z,2.60
2019-01-06T21:06:07.452Z,2.50
2019-01-06T21:08:57.460Z,2.50
2019-01-06T21:11:50.642Z,2.50
2019-01-06T21:14:46.818Z,2.50
2019-01-06T21:17:35.884Z,2.60
2019-01-06T21:20:32.019Z,2.50
2019-01-06T21:23:22.223Z,2.50
2019-01-06T21:26:14.710Z,2.50
2019-01-06T21:29:11.071Z,2.40
2019-01-06T21:31:59.850Z,2.50
2019-01-06T21:35:02.187Z,2.50
2019-01-06T21:38:01.529Z,2.50
2019-01-06T21:40:52.386Z,2.50
2019-01-06T21:43:42.935Z,2.50
2019-01-06T21:46:32.189Z,2.50
2019-01-06T21:49:31.212Z,2.50
2019-01-06T21:52:31.532Z,2.60
2019-01-06T21:55:36.578Z,2.50
2019-01-06T21:58:23.135Z,2.50
2019-01-06T22:01:12.067Z,2.60
2019-01-06T22:04:05.038Z,2.50
2019-01-06T22:06:58.024Z,2.50
2019-01-06T22:09:48.220Z,2.50
2019-01-06T22:12:38.232Z,2.50
2019-01-06T22:15:27.020Z,2.50
2019-01-06T22:18:17.020Z,2.50
2019-01-06T22:21:13.434Z,2.60
2019-01-06T22:24:16.492Z,2.50
2019-01-06T22:27:05.409Z,2.60
2019-01-06T22:29:55.565Z,2.60
2019-01-06T22:32:50.131Z,2.60
2019-01-06T22:35:38.982Z,2.60
2019-01-06T22:38:33.910Z,2.60
2019-01-06T22:41:22.524Z,2.60
2019-01-06T22:44:09.060Z,2.60
2019-01-06T22:47:11.138Z,2.50
2019-01-06T22:50:13.624Z,2.60
2019-01-06T22:53:15.728Z,2.50
2019-01-06T22:56:21.918Z,2.40
2019-01-06T22:59:10.518Z,2.50
2019-01-06T23:02:03.800Z,2.50
2019-01-06T23:04:52.624Z,2.50
2019-01-06T23:07:42.671Z,2.50
2019-01-06T23:10:31.668Z,2.40
2019-01-06T23:13:38.080Z,2.40
2019-01-06T23:16:40.479Z,2.40
2019-01-06T23:19:39.638Z,2.40
2019-01-06T23:22:30.540Z,2.40
2019-01-06T23:25:19.428Z,2.40
2019-01-06T23:28:13.530Z,2.50
2019-01-06T23:31:06.876Z,2.40
2019-01-06T23:33:55.740Z,2.50
2019-01-06T23:36:46.018Z,2.40
2019-01-06T23:39:38.850Z,2.50
2019-01-06T23:42:27.313Z,2.50
2019-01-06T23:45:17.991Z,2.50
2019-01-06T23:48:15.266Z,2.50
2019-01-06T23:51:23.388Z,2.50
2019-01-06T23:54:22.354Z,2.50
2019-01-06T23:57:14.700Z,2.50
